sensor_id;sensor_type;location;lat;lon;timestamp;P1;durP1;ratioP1;P2;durP2;ratioP2
74908;SDS011;63468;52.058;4.824;2023-05-07T00:00:50;38.47;;;27.67;;
74908;SDS011;63468;52.058;4.824;2023-05-07T00:03:16;40.97;;;29.42;;
74908;SDS011;63468;52.058;4.824;2023-05-07T00:05:41;39.53;;;28.30;;
74908;SDS011;63468;52.058;4.824;2023-05-07T00:08:07;37.08;;;26.90;;
74908;SDS011;63468;52.058;4.824;2023-05-07T00:10:32;37.33;;;28.58;;
74908;SDS011;63468;52.058;4.824;2023-05-07T00:12:58;37.55;;;29.20;;
74908;SDS011;63468;52.058;4.824;2023-05-07T00:15:23;36.97;;;28.05;;
74908;SDS011;63468;52.058;4.824;2023-05-07T00:17:48;38.72;;;28.48;;
74908;SDS011;63468;52.058;4.824;2023-05-07T00:20:14;39.35;;;28.73;;
74908;SDS011;63468;52.058;4.824;2023-05-07T00:22:39;38.50;;;30.83;;
74908;SDS011;63468;52.058;4.824;2023-05-07T00:25:05;37.28;;;29.00;;
74908;SDS011;63468;52.058;4.824;2023-05-07T00:27:30;39.08;;;29.92;;
74908;SDS011;63468;52.058;4.824;2023-05-07T00:29:55;36.83;;;29.30;;
74908;SDS011;63468;52.058;4.824;2023-05-07T00:32:21;39.22;;;29.45;;
74908;SDS011;63468;52.058;4.824;2023-05-07T00:34:46;42.03;;;31.27;;
74908;SDS011;63468;52.058;4.824;2023-05-07T00:37:12;40.15;;;29.98;;
74908;SDS011;63468;52.058;4.824;2023-05-07T00:39:37;48.20;;;31.98;;
74908;SDS011;63468;52.058;4.824;2023-05-07T00:42:02;50.33;;;41.55;;
74908;SDS011;63468;52.058;4.824;2023-05-07T00:44:29;47.30;;;41.00;;
74908;SDS011;63468;52.058;4.824;2023-05-07T00:46:54;46.72;;;40.20;;
74908;SDS011;63468;52.058;4.824;2023-05-07T00:49:20;49.20;;;40.72;;
74908;SDS011;63468;52.058;4.824;2023-05-07T00:51:46;50.40;;;41.58;;
74908;SDS011;63468;52.058;4.824;2023-05-07T00:54:11;61.28;;;42.00;;
74908;SDS011;63468;52.058;4.824;2023-05-07T00:56:38;48.10;;;41.63;;
74908;SDS011;63468;52.058;4.824;2023-05-07T00:59:04;53.00;;;42.22;;
74908;SDS011;63468;52.058;4.824;2023-05-07T01:01:31;54.92;;;41.67;;
74908;SDS011;63468;52.058;4.824;2023-05-07T01:03:56;59.70;;;47.60;;
74908;SDS011;63468;52.058;4.824;2023-05-07T01:06:22;56.78;;;44.95;;
74908;SDS011;63468;52.058;4.824;2023-05-07T01:08:48;59.70;;;48.53;;
74908;SDS011;63468;52.058;4.824;2023-05-07T01:11:15;64.50;;;48.80;;
74908;SDS011;63468;52.058;4.824;2023-05-07T01:13:41;56.65;;;46.75;;
74908;SDS011;63468;52.058;4.824;2023-05-07T01:16:08;59.05;;;46.60;;
74908;SDS011;63468;52.058;4.824;2023-05-07T01:18:33;59.15;;;49.15;;
74908;SDS011;63468;52.058;4.824;2023-05-07T01:20:59;58.03;;;49.13;;
74908;SDS011;63468;52.058;4.824;2023-05-07T01:23:26;57.85;;;47.55;;
74908;SDS011;63468;52.058;4.824;2023-05-07T01:25:52;60.40;;;49.20;;
74908;SDS011;63468;52.058;4.824;2023-05-07T01:28:18;62.53;;;47.00;;
74908;SDS011;63468;52.058;4.824;2023-05-07T01:30:45;53.63;;;43.75;;
74908;SDS011;63468;52.058;4.824;2023-05-07T01:33:13;54.78;;;47.38;;
74908;SDS011;63468;52.058;4.824;2023-05-07T01:35:40;55.65;;;49.45;;
74908;SDS011;63468;52.058;4.824;2023-05-07T01:38:07;54.22;;;46.75;;
74908;SDS011;63468;52.058;4.824;2023-05-07T01:40:33;53.50;;;47.55;;
74908;SDS011;63468;52.058;4.824;2023-05-07T01:42:59;52.47;;;45.83;;
74908;SDS011;63468;52.058;4.824;2023-05-07T01:45:26;52.17;;;46.88;;
74908;SDS011;63468;52.058;4.824;2023-05-07T01:47:52;52.38;;;46.80;;
74908;SDS011;63468;52.058;4.824;2023-05-07T01:50:18;48.90;;;43.63;;
74908;SDS011;63468;52.058;4.824;2023-05-07T01:52:44;46.90;;;41.30;;
74908;SDS011;63468;52.058;4.824;2023-05-07T01:55:10;51.88;;;46.72;;
74908;SDS011;63468;52.058;4.824;2023-05-07T01:57:35;52.40;;;45.63;;
74908;SDS011;63468;52.058;4.824;2023-05-07T02:00:01;51.33;;;45.70;;
74908;SDS011;63468;52.058;4.824;2023-05-07T02:02:31;48.80;;;43.90;;
74908;SDS011;63468;52.058;4.824;2023-05-07T02:04:56;47.92;;;42.97;;
74908;SDS011;63468;52.058;4.824;2023-05-07T02:07:21;47.25;;;41.45;;
74908;SDS011;63468;52.058;4.824;2023-05-07T02:09:47;49.90;;;44.60;;
74908;SDS011;63468;52.058;4.824;2023-05-07T02:12:12;49.58;;;44.42;;
74908;SDS011;63468;52.058;4.824;2023-05-07T02:14:37;48.13;;;43.15;;
74908;SDS011;63468;52.058;4.824;2023-05-07T02:17:03;48.72;;;43.08;;
74908;SDS011;63468;52.058;4.824;2023-05-07T02:19:28;47.88;;;42.83;;
74908;SDS011;63468;52.058;4.824;2023-05-07T02:21:53;50.15;;;45.22;;
74908;SDS011;63468;52.058;4.824;2023-05-07T02:24:19;51.65;;;46.72;;
74908;SDS011;63468;52.058;4.824;2023-05-07T02:26:44;51.42;;;45.40;;
74908;SDS011;63468;52.058;4.824;2023-05-07T02:29:10;49.50;;;44.60;;
74908;SDS011;63468;52.058;4.824;2023-05-07T02:31:35;51.85;;;47.08;;
74908;SDS011;63468;52.058;4.824;2023-05-07T02:34:00;51.13;;;45.75;;
74908;SDS011;63468;52.058;4.824;2023-05-07T02:36:26;51.78;;;46.67;;
74908;SDS011;63468;52.058;4.824;2023-05-07T02:38:51;50.50;;;45.33;;
74908;SDS011;63468;52.058;4.824;2023-05-07T02:41:17;47.55;;;42.60;;
74908;SDS011;63468;52.058;4.824;2023-05-07T02:43:42;50.78;;;45.70;;
74908;SDS011;63468;52.058;4.824;2023-05-07T02:46:08;50.55;;;45.50;;
74908;SDS011;63468;52.058;4.824;2023-05-07T02:48:34;50.00;;;44.58;;
74908;SDS011;63468;52.058;4.824;2023-05-07T02:50:59;50.00;;;45.15;;
74908;SDS011;63468;52.058;4.824;2023-05-07T02:53:25;53.42;;;48.58;;
74908;SDS011;63468;52.058;4.824;2023-05-07T02:55:55;54.22;;;49.05;;
74908;SDS011;63468;52.058;4.824;2023-05-07T02:58:23;51.45;;;46.95;;
74908;SDS011;63468;52.058;4.824;2023-05-07T03:00:49;50.38;;;45.72;;
74908;SDS011;63468;52.058;4.824;2023-05-07T03:03:14;53.17;;;48.22;;
74908;SDS011;63468;52.058;4.824;2023-05-07T03:05:40;50.80;;;45.78;;
74908;SDS011;63468;52.058;4.824;2023-05-07T03:08:05;49.35;;;44.85;;
74908;SDS011;63468;52.058;4.824;2023-05-07T03:10:31;47.45;;;42.90;;
74908;SDS011;63468;52.058;4.824;2023-05-07T03:12:56;49.92;;;45.17;;
74908;SDS011;63468;52.058;4.824;2023-05-07T03:15:22;49.00;;;44.33;;
74908;SDS011;63468;52.058;4.824;2023-05-07T03:17:47;52.08;;;47.42;;
74908;SDS011;63468;52.058;4.824;2023-05-07T03:20:13;53.42;;;49.03;;
74908;SDS011;63468;52.058;4.824;2023-05-07T03:22:38;54.20;;;49.65;;
74908;SDS011;63468;52.058;4.824;2023-05-07T03:25:04;47.40;;;42.90;;
74908;SDS011;63468;52.058;4.824;2023-05-07T03:27:30;50.60;;;45.90;;
74908;SDS011;63468;52.058;4.824;2023-05-07T03:29:55;47.90;;;43.75;;
74908;SDS011;63468;52.058;4.824;2023-05-07T03:32:21;49.90;;;44.97;;
74908;SDS011;63468;52.058;4.824;2023-05-07T03:34:46;46.63;;;42.65;;
74908;SDS011;63468;52.058;4.824;2023-05-07T03:37:11;46.50;;;42.20;;
74908;SDS011;63468;52.058;4.824;2023-05-07T03:39:36;44.65;;;40.25;;
74908;SDS011;63468;52.058;4.824;2023-05-07T03:42:02;46.40;;;41.90;;
74908;SDS011;63468;52.058;4.824;2023-05-07T03:44:28;45.03;;;40.55;;
74908;SDS011;63468;52.058;4.824;2023-05-07T03:46:53;45.33;;;40.88;;
74908;SDS011;63468;52.058;4.824;2023-05-07T03:49:18;44.90;;;40.58;;
74908;SDS011;63468;52.058;4.824;2023-05-07T03:51:44;43.33;;;39.05;;
74908;SDS011;63468;52.058;4.824;2023-05-07T03:54:09;42.00;;;37.60;;
74908;SDS011;63468;52.058;4.824;2023-05-07T03:56:34;42.95;;;38.85;;
74908;SDS011;63468;52.058;4.824;2023-05-07T03:59:00;43.75;;;39.75;;
74908;SDS011;63468;52.058;4.824;2023-05-07T04:01:26;43.72;;;39.40;;
74908;SDS011;63468;52.058;4.824;2023-05-07T04:03:51;44.75;;;40.72;;
74908;SDS011;63468;52.058;4.824;2023-05-07T04:06:17;42.40;;;38.58;;
74908;SDS011;63468;52.058;4.824;2023-05-07T04:08:42;41.15;;;37.25;;
74908;SDS011;63468;52.058;4.824;2023-05-07T04:11:08;41.55;;;37.55;;
74908;SDS011;63468;52.058;4.824;2023-05-07T04:13:33;43.08;;;38.90;;
74908;SDS011;63468;52.058;4.824;2023-05-07T04:16:00;39.35;;;35.45;;
74908;SDS011;63468;52.058;4.824;2023-05-07T04:18:26;41.80;;;37.67;;
74908;SDS011;63468;52.058;4.824;2023-05-07T04:20:51;39.83;;;35.88;;
74908;SDS011;63468;52.058;4.824;2023-05-07T04:23:17;36.58;;;33.00;;
74908;SDS011;63468;52.058;4.824;2023-05-07T04:25:42;40.00;;;35.88;;
74908;SDS011;63468;52.058;4.824;2023-05-07T04:28:07;39.83;;;35.92;;
74908;SDS011;63468;52.058;4.824;2023-05-07T04:30:33;37.45;;;33.65;;
74908;SDS011;63468;52.058;4.824;2023-05-07T04:32:58;40.40;;;36.20;;
74908;SDS011;63468;52.058;4.824;2023-05-07T04:35:23;38.35;;;34.50;;
74908;SDS011;63468;52.058;4.824;2023-05-07T04:37:49;38.28;;;34.50;;
74908;SDS011;63468;52.058;4.824;2023-05-07T04:40:14;39.33;;;35.13;;
74908;SDS011;63468;52.058;4.824;2023-05-07T04:42:40;40.22;;;36.13;;
74908;SDS011;63468;52.058;4.824;2023-05-07T04:45:06;39.40;;;35.55;;
74908;SDS011;63468;52.058;4.824;2023-05-07T04:47:31;40.08;;;36.03;;
74908;SDS011;63468;52.058;4.824;2023-05-07T04:49:57;39.15;;;35.28;;
74908;SDS011;63468;52.058;4.824;2023-05-07T04:52:23;40.92;;;36.60;;
74908;SDS011;63468;52.058;4.824;2023-05-07T04:54:48;40.90;;;36.75;;
74908;SDS011;63468;52.058;4.824;2023-05-07T04:57:14;38.65;;;34.80;;
74908;SDS011;63468;52.058;4.824;2023-05-07T04:59:39;39.35;;;35.10;;
74908;SDS011;63468;52.058;4.824;2023-05-07T05:02:04;40.08;;;35.75;;
74908;SDS011;63468;52.058;4.824;2023-05-07T05:04:30;37.78;;;33.85;;
74908;SDS011;63468;52.058;4.824;2023-05-07T05:06:55;36.80;;;33.22;;
74908;SDS011;63468;52.058;4.824;2023-05-07T05:09:21;41.03;;;36.38;;
74908;SDS011;63468;52.058;4.824;2023-05-07T05:11:46;41.83;;;37.85;;
74908;SDS011;63468;52.058;4.824;2023-05-07T05:14:11;41.55;;;36.85;;
74908;SDS011;63468;52.058;4.824;2023-05-07T05:16:37;50.60;;;45.60;;
74908;SDS011;63468;52.058;4.824;2023-05-07T05:19:02;49.60;;;44.85;;
74908;SDS011;63468;52.058;4.824;2023-05-07T05:21:27;50.97;;;46.13;;
74908;SDS011;63468;52.058;4.824;2023-05-07T05:23:53;49.92;;;45.17;;
74908;SDS011;63468;52.058;4.824;2023-05-07T05:26:19;50.92;;;45.88;;
74908;SDS011;63468;52.058;4.824;2023-05-07T05:28:46;52.72;;;47.70;;
74908;SDS011;63468;52.058;4.824;2023-05-07T05:31:11;53.03;;;47.50;;
74908;SDS011;63468;52.058;4.824;2023-05-07T05:33:36;52.83;;;47.60;;
74908;SDS011;63468;52.058;4.824;2023-05-07T05:36:01;53.08;;;47.63;;
74908;SDS011;63468;52.058;4.824;2023-05-07T05:38:27;54.40;;;48.70;;
74908;SDS011;63468;52.058;4.824;2023-05-07T05:40:52;54.38;;;48.78;;
74908;SDS011;63468;52.058;4.824;2023-05-07T05:43:17;50.45;;;45.25;;
74908;SDS011;63468;52.058;4.824;2023-05-07T05:45:43;53.15;;;47.28;;
74908;SDS011;63468;52.058;4.824;2023-05-07T05:48:08;52.83;;;47.40;;
74908;SDS011;63468;52.058;4.824;2023-05-07T05:50:34;50.47;;;45.17;;
74908;SDS011;63468;52.058;4.824;2023-05-07T05:53:01;52.67;;;47.08;;
74908;SDS011;63468;52.058;4.824;2023-05-07T05:55:27;52.47;;;47.03;;
74908;SDS011;63468;52.058;4.824;2023-05-07T05:57:52;52.33;;;46.95;;
74908;SDS011;63468;52.058;4.824;2023-05-07T06:00:17;52.92;;;47.38;;
74908;SDS011;63468;52.058;4.824;2023-05-07T06:02:43;53.03;;;47.53;;
74908;SDS011;63468;52.058;4.824;2023-05-07T06:05:09;51.88;;;46.30;;
74908;SDS011;63468;52.058;4.824;2023-05-07T06:07:34;52.78;;;47.05;;
74908;SDS011;63468;52.058;4.824;2023-05-07T06:10:00;52.67;;;47.13;;
74908;SDS011;63468;52.058;4.824;2023-05-07T06:12:25;51.67;;;46.28;;
74908;SDS011;63468;52.058;4.824;2023-05-07T06:14:51;54.00;;;48.70;;
74908;SDS011;63468;52.058;4.824;2023-05-07T06:17:16;51.45;;;46.00;;
74908;SDS011;63468;52.058;4.824;2023-05-07T06:19:41;51.50;;;46.05;;
74908;SDS011;63468;52.058;4.824;2023-05-07T06:22:07;55.95;;;50.08;;
74908;SDS011;63468;52.058;4.824;2023-05-07T06:24:32;52.65;;;46.92;;
74908;SDS011;63468;52.058;4.824;2023-05-07T06:26:57;53.80;;;48.22;;
74908;SDS011;63468;52.058;4.824;2023-05-07T06:29:23;50.20;;;45.17;;
74908;SDS011;63468;52.058;4.824;2023-05-07T06:31:50;47.70;;;42.75;;
74908;SDS011;63468;52.058;4.824;2023-05-07T06:34:17;48.83;;;43.97;;
74908;SDS011;63468;52.058;4.824;2023-05-07T06:36:42;50.65;;;45.25;;
74908;SDS011;63468;52.058;4.824;2023-05-07T06:39:07;51.58;;;46.38;;
74908;SDS011;63468;52.058;4.824;2023-05-07T06:41:33;48.33;;;43.50;;
74908;SDS011;63468;52.058;4.824;2023-05-07T06:43:59;46.53;;;41.92;;
74908;SDS011;63468;52.058;4.824;2023-05-07T06:46:24;47.05;;;42.45;;
74908;SDS011;63468;52.058;4.824;2023-05-07T06:48:50;48.17;;;43.47;;
74908;SDS011;63468;52.058;4.824;2023-05-07T06:51:15;49.75;;;44.60;;
74908;SDS011;63468;52.058;4.824;2023-05-07T06:53:41;49.85;;;44.65;;
74908;SDS011;63468;52.058;4.824;2023-05-07T06:56:06;49.22;;;43.95;;
74908;SDS011;63468;52.058;4.824;2023-05-07T06:58:31;49.30;;;44.38;;
74908;SDS011;63468;52.058;4.824;2023-05-07T07:00:57;48.22;;;43.22;;
74908;SDS011;63468;52.058;4.824;2023-05-07T07:03:23;48.90;;;44.00;;
74908;SDS011;63468;52.058;4.824;2023-05-07T07:05:51;45.45;;;40.55;;
74908;SDS011;63468;52.058;4.824;2023-05-07T07:08:17;54.72;;;49.25;;
74908;SDS011;63468;52.058;4.824;2023-05-07T07:10:43;60.45;;;53.80;;
74908;SDS011;63468;52.058;4.824;2023-05-07T07:13:08;57.38;;;51.45;;
74908;SDS011;63468;52.058;4.824;2023-05-07T07:15:33;57.67;;;52.08;;
74908;SDS011;63468;52.058;4.824;2023-05-07T07:18:00;59.70;;;53.50;;
74908;SDS011;63468;52.058;4.824;2023-05-07T07:20:27;55.90;;;50.55;;
74908;SDS011;63468;52.058;4.824;2023-05-07T07:22:52;56.30;;;50.38;;
74908;SDS011;63468;52.058;4.824;2023-05-07T07:25:17;57.72;;;52.03;;
74908;SDS011;63468;52.058;4.824;2023-05-07T07:27:43;55.50;;;49.75;;
74908;SDS011;63468;52.058;4.824;2023-05-07T07:30:08;57.25;;;51.47;;
74908;SDS011;63468;52.058;4.824;2023-05-07T07:32:34;57.83;;;52.03;;
74908;SDS011;63468;52.058;4.824;2023-05-07T07:34:59;60.63;;;54.42;;
74908;SDS011;63468;52.058;4.824;2023-05-07T07:37:25;58.60;;;52.47;;
74908;SDS011;63468;52.058;4.824;2023-05-07T07:39:50;56.63;;;50.85;;
74908;SDS011;63468;52.058;4.824;2023-05-07T07:42:16;54.75;;;48.97;;
74908;SDS011;63468;52.058;4.824;2023-05-07T07:44:41;54.67;;;49.67;;
74908;SDS011;63468;52.058;4.824;2023-05-07T07:47:06;52.08;;;46.97;;
74908;SDS011;63468;52.058;4.824;2023-05-07T07:49:32;51.05;;;45.97;;
74908;SDS011;63468;52.058;4.824;2023-05-07T07:51:57;57.55;;;51.80;;
74908;SDS011;63468;52.058;4.824;2023-05-07T07:54:24;61.40;;;54.80;;
74908;SDS011;63468;52.058;4.824;2023-05-07T07:56:50;57.97;;;52.35;;
74908;SDS011;63468;52.058;4.824;2023-05-07T07:59:15;58.65;;;52.65;;
74908;SDS011;63468;52.058;4.824;2023-05-07T08:01:43;58.55;;;52.53;;
74908;SDS011;63468;52.058;4.824;2023-05-07T08:04:09;55.72;;;50.15;;
74908;SDS011;63468;52.058;4.824;2023-05-07T08:06:35;51.47;;;46.58;;
74908;SDS011;63468;52.058;4.824;2023-05-07T08:09:00;53.25;;;47.63;;
74908;SDS011;63468;52.058;4.824;2023-05-07T08:11:25;54.20;;;48.88;;
74908;SDS011;63468;52.058;4.824;2023-05-07T08:13:51;50.97;;;45.95;;
74908;SDS011;63468;52.058;4.824;2023-05-07T08:16:16;53.63;;;48.03;;
74908;SDS011;63468;52.058;4.824;2023-05-07T08:18:41;52.92;;;47.42;;
74908;SDS011;63468;52.058;4.824;2023-05-07T08:21:07;52.28;;;46.95;;
74908;SDS011;63468;52.058;4.824;2023-05-07T08:23:32;50.13;;;44.83;;
74908;SDS011;63468;52.058;4.824;2023-05-07T08:25:59;50.63;;;45.55;;
74908;SDS011;63468;52.058;4.824;2023-05-07T08:28:25;51.20;;;46.17;;
74908;SDS011;63468;52.058;4.824;2023-05-07T08:30:50;51.72;;;46.50;;
74908;SDS011;63468;52.058;4.824;2023-05-07T08:33:15;52.35;;;47.05;;
74908;SDS011;63468;52.058;4.824;2023-05-07T08:35:41;46.70;;;42.13;;
74908;SDS011;63468;52.058;4.824;2023-05-07T08:38:07;45.45;;;41.10;;
74908;SDS011;63468;52.058;4.824;2023-05-07T08:40:38;47.10;;;42.78;;
74908;SDS011;63468;52.058;4.824;2023-05-07T08:43:05;45.25;;;41.05;;
74908;SDS011;63468;52.058;4.824;2023-05-07T08:45:30;47.30;;;42.97;;
74908;SDS011;63468;52.058;4.824;2023-05-07T08:48:05;42.90;;;38.88;;
74908;SDS011;63468;52.058;4.824;2023-05-07T08:50:37;43.40;;;39.33;;
74908;SDS011;63468;52.058;4.824;2023-05-07T08:53:03;38.22;;;34.90;;
74908;SDS011;63468;52.058;4.824;2023-05-07T08:55:29;37.72;;;34.38;;
74908;SDS011;63468;52.058;4.824;2023-05-07T08:57:55;34.55;;;31.65;;
74908;SDS011;63468;52.058;4.824;2023-05-07T09:00:20;37.13;;;33.63;;
74908;SDS011;63468;52.058;4.824;2023-05-07T09:02:46;36.03;;;32.92;;
74908;SDS011;63468;52.058;4.824;2023-05-07T09:05:11;33.35;;;30.48;;
74908;SDS011;63468;52.058;4.824;2023-05-07T09:07:36;31.35;;;28.55;;
74908;SDS011;63468;52.058;4.824;2023-05-07T09:10:02;34.78;;;31.65;;
74908;SDS011;63468;52.058;4.824;2023-05-07T09:12:29;34.38;;;31.52;;
74908;SDS011;63468;52.058;4.824;2023-05-07T09:14:54;33.90;;;30.80;;
74908;SDS011;63468;52.058;4.824;2023-05-07T09:17:19;32.92;;;29.98;;
74908;SDS011;63468;52.058;4.824;2023-05-07T09:19:45;33.63;;;30.42;;
74908;SDS011;63468;52.058;4.824;2023-05-07T09:22:11;32.20;;;29.40;;
74908;SDS011;63468;52.058;4.824;2023-05-07T09:24:36;32.20;;;29.23;;
74908;SDS011;63468;52.058;4.824;2023-05-07T09:27:05;26.02;;;23.90;;
74908;SDS011;63468;52.058;4.824;2023-05-07T09:29:33;26.02;;;23.60;;
74908;SDS011;63468;52.058;4.824;2023-05-07T09:32:06;26.33;;;24.20;;
74908;SDS011;63468;52.058;4.824;2023-05-07T09:34:32;25.80;;;23.58;;
74908;SDS011;63468;52.058;4.824;2023-05-07T09:37:01;25.52;;;23.45;;
74908;SDS011;63468;52.058;4.824;2023-05-07T09:39:38;26.40;;;23.85;;
74908;SDS011;63468;52.058;4.824;2023-05-07T09:42:04;26.63;;;24.33;;
74908;SDS011;63468;52.058;4.824;2023-05-07T09:44:31;27.30;;;24.90;;
74908;SDS011;63468;52.058;4.824;2023-05-07T09:46:57;28.17;;;25.83;;
74908;SDS011;63468;52.058;4.824;2023-05-07T09:49:25;28.27;;;25.83;;
74908;SDS011;63468;52.058;4.824;2023-05-07T09:51:55;27.88;;;25.55;;
74908;SDS011;63468;52.058;4.824;2023-05-07T09:54:21;28.77;;;26.27;;
74908;SDS011;63468;52.058;4.824;2023-05-07T09:56:49;26.85;;;24.55;;
74908;SDS011;63468;52.058;4.824;2023-05-07T09:59:17;25.63;;;23.52;;
74908;SDS011;63468;52.058;4.824;2023-05-07T10:01:42;25.73;;;23.63;;
74908;SDS011;63468;52.058;4.824;2023-05-07T10:04:10;24.80;;;22.73;;
74908;SDS011;63468;52.058;4.824;2023-05-07T10:06:35;25.83;;;23.67;;
74908;SDS011;63468;52.058;4.824;2023-05-07T10:09:02;27.35;;;24.98;;
74908;SDS011;63468;52.058;4.824;2023-05-07T10:11:28;27.48;;;24.77;;
74908;SDS011;63468;52.058;4.824;2023-05-07T10:13:53;25.92;;;23.58;;
74908;SDS011;63468;52.058;4.824;2023-05-07T10:16:19;25.13;;;23.05;;
74908;SDS011;63468;52.058;4.824;2023-05-07T10:18:46;24.75;;;22.63;;
74908;SDS011;63468;52.058;4.824;2023-05-07T10:21:21;25.63;;;23.42;;
74908;SDS011;63468;52.058;4.824;2023-05-07T10:23:49;25.25;;;22.77;;
74908;SDS011;63468;52.058;4.824;2023-05-07T10:26:16;24.50;;;22.27;;
74908;SDS011;63468;52.058;4.824;2023-05-07T10:28:44;24.67;;;22.52;;
74908;SDS011;63468;52.058;4.824;2023-05-07T10:34:20;22.33;;;20.55;;
74908;SDS011;63468;52.058;4.824;2023-05-07T10:36:47;24.77;;;22.60;;
74908;SDS011;63468;52.058;4.824;2023-05-07T10:39:13;24.23;;;22.40;;
74908;SDS011;63468;52.058;4.824;2023-05-07T10:41:39;22.38;;;20.48;;
74908;SDS011;63468;52.058;4.824;2023-05-07T10:44:04;23.75;;;21.98;;
74908;SDS011;63468;52.058;4.824;2023-05-07T10:46:29;24.33;;;22.23;;
74908;SDS011;63468;52.058;4.824;2023-05-07T10:51:26;26.60;;;24.15;;
74908;SDS011;63468;52.058;4.824;2023-05-07T10:56:36;25.58;;;23.55;;
74908;SDS011;63468;52.058;4.824;2023-05-07T11:02:03;25.85;;;23.60;;
74908;SDS011;63468;52.058;4.824;2023-05-07T11:04:31;25.48;;;23.55;;
74908;SDS011;63468;52.058;4.824;2023-05-07T11:15:01;26.40;;;24.25;;
74908;SDS011;63468;52.058;4.824;2023-05-07T11:17:31;25.38;;;23.35;;
74908;SDS011;63468;52.058;4.824;2023-05-07T11:19:59;25.33;;;23.33;;
74908;SDS011;63468;52.058;4.824;2023-05-07T11:25:04;23.92;;;21.98;;
74908;SDS011;63468;52.058;4.824;2023-05-07T11:27:31;25.02;;;22.98;;
74908;SDS011;63468;52.058;4.824;2023-05-07T11:29:56;24.98;;;23.17;;
74908;SDS011;63468;52.058;4.824;2023-05-07T11:32:28;25.92;;;23.90;;
74908;SDS011;63468;52.058;4.824;2023-05-07T11:34:55;23.42;;;21.63;;
74908;SDS011;63468;52.058;4.824;2023-05-07T11:37:21;24.60;;;22.70;;
74908;SDS011;63468;52.058;4.824;2023-05-07T11:39:47;23.73;;;21.80;;
74908;SDS011;63468;52.058;4.824;2023-05-07T11:42:32;24.23;;;22.27;;
74908;SDS011;63468;52.058;4.824;2023-05-07T11:44:59;24.10;;;22.05;;
74908;SDS011;63468;52.058;4.824;2023-05-07T11:47:25;24.35;;;22.10;;
74908;SDS011;63468;52.058;4.824;2023-05-07T11:49:51;23.83;;;22.02;;
74908;SDS011;63468;52.058;4.824;2023-05-07T11:52:18;23.30;;;21.40;;
74908;SDS011;63468;52.058;4.824;2023-05-07T11:54:54;28.60;;;26.08;;
74908;SDS011;63468;52.058;4.824;2023-05-07T11:57:21;23.58;;;21.77;;
74908;SDS011;63468;52.058;4.824;2023-05-07T11:59:47;23.42;;;21.63;;
74908;SDS011;63468;52.058;4.824;2023-05-07T12:02:13;22.75;;;20.95;;
74908;SDS011;63468;52.058;4.824;2023-05-07T12:04:40;22.05;;;20.33;;
74908;SDS011;63468;52.058;4.824;2023-05-07T12:07:05;21.50;;;20.00;;
74908;SDS011;63468;52.058;4.824;2023-05-07T12:09:32;22.75;;;20.90;;
74908;SDS011;63468;52.058;4.824;2023-05-07T12:12:02;22.88;;;20.63;;
74908;SDS011;63468;52.058;4.824;2023-05-07T12:14:28;22.33;;;20.60;;
74908;SDS011;63468;52.058;4.824;2023-05-07T12:16:54;21.63;;;20.00;;
74908;SDS011;63468;52.058;4.824;2023-05-07T12:19:20;22.90;;;21.17;;
74908;SDS011;63468;52.058;4.824;2023-05-07T12:21:55;23.20;;;21.20;;
74908;SDS011;63468;52.058;4.824;2023-05-07T12:24:21;23.17;;;21.08;;
74908;SDS011;63468;52.058;4.824;2023-05-07T12:26:46;24.42;;;22.33;;
74908;SDS011;63468;52.058;4.824;2023-05-07T12:29:12;24.52;;;22.35;;
74908;SDS011;63468;52.058;4.824;2023-05-07T12:31:40;26.30;;;23.85;;
74908;SDS011;63468;52.058;4.824;2023-05-07T12:34:05;24.75;;;22.63;;
74908;SDS011;63468;52.058;4.824;2023-05-07T12:36:37;25.80;;;23.45;;
74908;SDS011;63468;52.058;4.824;2023-05-07T12:39:04;27.05;;;24.42;;
74908;SDS011;63468;52.058;4.824;2023-05-07T12:41:52;26.05;;;23.60;;
74908;SDS011;63468;52.058;4.824;2023-05-07T12:44:23;24.88;;;22.65;;
74908;SDS011;63468;52.058;4.824;2023-05-07T12:46:50;25.85;;;23.52;;
74908;SDS011;63468;52.058;4.824;2023-05-07T12:49:16;25.60;;;23.35;;
74908;SDS011;63468;52.058;4.824;2023-05-07T12:51:42;25.45;;;23.33;;
74908;SDS011;63468;52.058;4.824;2023-05-07T12:54:08;27.30;;;24.77;;
74908;SDS011;63468;52.058;4.824;2023-05-07T12:56:35;26.05;;;23.92;;
74908;SDS011;63468;52.058;4.824;2023-05-07T12:59:01;26.15;;;23.83;;
74908;SDS011;63468;52.058;4.824;2023-05-07T13:01:29;39.90;;;36.47;;
74908;SDS011;63468;52.058;4.824;2023-05-07T13:04:00;43.83;;;40.30;;
74908;SDS011;63468;52.058;4.824;2023-05-07T13:06:26;51.97;;;47.80;;
74908;SDS011;63468;52.058;4.824;2023-05-07T13:08:51;48.22;;;44.33;;
74908;SDS011;63468;52.058;4.824;2023-05-07T13:11:16;45.85;;;41.92;;
74908;SDS011;63468;52.058;4.824;2023-05-07T13:13:42;42.28;;;38.97;;
74908;SDS011;63468;52.058;4.824;2023-05-07T13:16:08;44.63;;;40.83;;
74908;SDS011;63468;52.058;4.824;2023-05-07T13:18:35;39.67;;;36.40;;
74908;SDS011;63468;52.058;4.824;2023-05-07T13:21:01;36.60;;;33.60;;
74908;SDS011;63468;52.058;4.824;2023-05-07T13:23:26;37.10;;;33.58;;
74908;SDS011;63468;52.058;4.824;2023-05-07T13:25:52;38.15;;;34.78;;
74908;SDS011;63468;52.058;4.824;2023-05-07T13:28:18;36.97;;;33.75;;
74908;SDS011;63468;52.058;4.824;2023-05-07T13:30:45;37.00;;;33.60;;
74908;SDS011;63468;52.058;4.824;2023-05-07T13:33:10;35.45;;;32.40;;
74908;SDS011;63468;52.058;4.824;2023-05-07T13:35:35;35.55;;;32.25;;
74908;SDS011;63468;52.058;4.824;2023-05-07T13:38:01;36.13;;;33.13;;
74908;SDS011;63468;52.058;4.824;2023-05-07T13:40:26;39.30;;;35.67;;
74908;SDS011;63468;52.058;4.824;2023-05-07T13:42:52;39.33;;;36.05;;
74908;SDS011;63468;52.058;4.824;2023-05-07T13:45:18;42.67;;;38.78;;
74908;SDS011;63468;52.058;4.824;2023-05-07T13:47:43;37.72;;;34.55;;
74908;SDS011;63468;52.058;4.824;2023-05-07T13:50:09;29.60;;;27.10;;
74908;SDS011;63468;52.058;4.824;2023-05-07T13:52:36;29.60;;;27.00;;
74908;SDS011;63468;52.058;4.824;2023-05-07T13:55:01;26.40;;;24.38;;
74908;SDS011;63468;52.058;4.824;2023-05-07T13:57:27;25.95;;;23.95;;
74908;SDS011;63468;52.058;4.824;2023-05-07T13:59:52;27.27;;;25.30;;
74908;SDS011;63468;52.058;4.824;2023-05-07T14:02:17;27.25;;;25.30;;
74908;SDS011;63468;52.058;4.824;2023-05-07T14:04:42;28.58;;;26.38;;
74908;SDS011;63468;52.058;4.824;2023-05-07T14:07:08;29.33;;;26.83;;
74908;SDS011;63468;52.058;4.824;2023-05-07T14:09:33;26.80;;;24.77;;
74908;SDS011;63468;52.058;4.824;2023-05-07T14:11:58;27.13;;;25.13;;
74908;SDS011;63468;52.058;4.824;2023-05-07T14:14:24;30.20;;;27.67;;
74908;SDS011;63468;52.058;4.824;2023-05-07T14:16:49;30.10;;;27.48;;
74908;SDS011;63468;52.058;4.824;2023-05-07T14:19:15;34.67;;;32.17;;
74908;SDS011;63468;52.058;4.824;2023-05-07T14:21:40;38.00;;;35.03;;
74908;SDS011;63468;52.058;4.824;2023-05-07T14:24:06;39.47;;;36.45;;
74908;SDS011;63468;52.058;4.824;2023-05-07T14:26:32;36.22;;;33.75;;
74908;SDS011;63468;52.058;4.824;2023-05-07T14:28:58;36.70;;;34.10;;
74908;SDS011;63468;52.058;4.824;2023-05-07T14:31:23;37.75;;;35.00;;
74908;SDS011;63468;52.058;4.824;2023-05-07T14:33:49;39.78;;;36.65;;
74908;SDS011;63468;52.058;4.824;2023-05-07T14:36:15;42.55;;;39.40;;